sensor_id;sensor_type;location;lat;lon;timestamp;P1;durP1;ratioP1;P2;durP2;ratioP2
5690;SDS011;2870;42.680;23.364;2023-08-08T00:01:52;5.33;;;3.17;;
5690;SDS011;2870;42.680;23.364;2023-08-08T00:04:18;5.23;;;3.23;;
5690;SDS011;2870;42.680;23.364;2023-08-08T00:06:44;6.07;;;3.50;;
5690;SDS011;2870;42.680;23.364;2023-08-08T00:09:11;5.00;;;3.20;;
5690;SDS011;2870;42.680;23.364;2023-08-08T00:11:38;5.63;;;3.00;;
5690;SDS011;2870;42.680;23.364;2023-08-08T00:14:05;4.80;;;2.87;;
5690;SDS011;2870;42.680;23.364;2023-08-08T00:16:31;5.77;;;3.57;;
5690;SDS011;2870;42.680;23.364;2023-08-08T00:18:57;5.37;;;3.20;;
5690;SDS011;2870;42.680;23.364;2023-08-08T00:21:23;5.80;;;3.40;;
5690;SDS011;2870;42.680;23.364;2023-08-08T00:23:50;5.20;;;3.27;;
5690;SDS011;2870;42.680;23.364;2023-08-08T00:26:17;5.23;;;3.23;;
5690;SDS011;2870;42.680;23.364;2023-08-08T00:28:43;7.13;;;3.47;;
5690;SDS011;2870;42.680;23.364;2023-08-08T00:31:09;5.10;;;3.27;;
5690;SDS011;2870;42.680;23.364;2023-08-08T00:33:35;5.10;;;3.30;;
5690;SDS011;2870;42.680;23.364;2023-08-08T00:36:01;5.60;;;3.40;;
5690;SDS011;2870;42.680;23.364;2023-08-08T00:38:27;5.97;;;3.20;;
5690;SDS011;2870;42.680;23.364;2023-08-08T00:40:54;5.43;;;3.67;;
5690;SDS011;2870;42.680;23.364;2023-08-08T00:43:20;6.00;;;3.27;;
5690;SDS011;2870;42.680;23.364;2023-08-08T00:45:46;5.60;;;3.40;;
5690;SDS011;2870;42.680;23.364;2023-08-08T00:48:13;5.83;;;3.30;;
5690;SDS011;2870;42.680;23.364;2023-08-08T00:50:42;6.10;;;3.67;;
5690;SDS011;2870;42.680;23.364;2023-08-08T00:53:09;7.60;;;3.67;;
5690;SDS011;2870;42.680;23.364;2023-08-08T00:55:35;7.27;;;3.90;;
5690;SDS011;2870;42.680;23.364;2023-08-08T00:58:01;5.70;;;3.67;;
5690;SDS011;2870;42.680;23.364;2023-08-08T01:00:28;5.90;;;3.20;;
5690;SDS011;2870;42.680;23.364;2023-08-08T01:02:54;5.23;;;3.23;;
5690;SDS011;2870;42.680;23.364;2023-08-08T01:05:20;6.30;;;3.07;;
5690;SDS011;2870;42.680;23.364;2023-08-08T01:07:47;5.77;;;3.67;;
5690;SDS011;2870;42.680;23.364;2023-08-08T01:10:20;5.40;;;3.27;;
5690;SDS011;2870;42.680;23.364;2023-08-08T01:12:53;11.30;;;3.47;;
5690;SDS011;2870;42.680;23.364;2023-08-08T01:15:22;6.33;;;3.30;;
5690;SDS011;2870;42.680;23.364;2023-08-08T01:17:49;6.07;;;3.50;;
5690;SDS011;2870;42.680;23.364;2023-08-08T01:20:16;5.13;;;3.10;;
5690;SDS011;2870;42.680;23.364;2023-08-08T01:22:45;5.40;;;3.50;;
5690;SDS011;2870;42.680;23.364;2023-08-08T01:25:21;5.30;;;3.20;;
5690;SDS011;2870;42.680;23.364;2023-08-08T01:27:48;6.70;;;3.60;;
5690;SDS011;2870;42.680;23.364;2023-08-08T01:30:14;5.17;;;3.13;;
5690;SDS011;2870;42.680;23.364;2023-08-08T01:32:41;5.40;;;3.60;;
5690;SDS011;2870;42.680;23.364;2023-08-08T01:35:07;5.80;;;3.63;;
5690;SDS011;2870;42.680;23.364;2023-08-08T01:37:36;5.60;;;3.30;;
5690;SDS011;2870;42.680;23.364;2023-08-08T01:40:05;5.60;;;3.50;;
5690;SDS011;2870;42.680;23.364;2023-08-08T01:42:35;5.87;;;3.63;;
5690;SDS011;2870;42.680;23.364;2023-08-08T01:45:01;5.60;;;3.70;;
5690;SDS011;2870;42.680;23.364;2023-08-08T01:47:29;6.57;;;3.93;;
5690;SDS011;2870;42.680;23.364;2023-08-08T01:49:55;8.07;;;3.50;;
5690;SDS011;2870;42.680;23.364;2023-08-08T01:52:21;6.00;;;3.70;;
5690;SDS011;2870;42.680;23.364;2023-08-08T01:54:48;7.67;;;3.37;;
5690;SDS011;2870;42.680;23.364;2023-08-08T01:57:14;5.90;;;4.00;;
5690;SDS011;2870;42.680;23.364;2023-08-08T01:59:41;6.13;;;3.70;;
5690;SDS011;2870;42.680;23.364;2023-08-08T02:04:35;5.03;;;3.50;;
5690;SDS011;2870;42.680;23.364;2023-08-08T02:07:01;6.27;;;3.77;;
5690;SDS011;2870;42.680;23.364;2023-08-08T02:09:27;7.20;;;3.77;;
5690;SDS011;2870;42.680;23.364;2023-08-08T02:11:53;6.50;;;3.80;;
5690;SDS011;2870;42.680;23.364;2023-08-08T02:14:20;5.93;;;3.67;;
5690;SDS011;2870;42.680;23.364;2023-08-08T02:16:47;6.03;;;3.20;;
5690;SDS011;2870;42.680;23.364;2023-08-08T02:19:13;6.13;;;3.80;;
5690;SDS011;2870;42.680;23.364;2023-08-08T02:21:39;6.10;;;3.83;;
5690;SDS011;2870;42.680;23.364;2023-08-08T02:24:06;6.90;;;3.30;;
5690;SDS011;2870;42.680;23.364;2023-08-08T02:26:32;5.53;;;3.80;;
5690;SDS011;2870;42.680;23.364;2023-08-08T02:28:58;5.77;;;3.80;;
5690;SDS011;2870;42.680;23.364;2023-08-08T02:31:24;5.33;;;3.80;;
5690;SDS011;2870;42.680;23.364;2023-08-08T02:33:51;12.07;;;3.97;;
5690;SDS011;2870;42.680;23.364;2023-08-08T02:36:17;5.30;;;3.70;;
5690;SDS011;2870;42.680;23.364;2023-08-08T02:38:44;5.90;;;4.23;;
5690;SDS011;2870;42.680;23.364;2023-08-08T02:41:10;5.83;;;3.50;;
5690;SDS011;2870;42.680;23.364;2023-08-08T02:43:36;5.30;;;3.73;;
5690;SDS011;2870;42.680;23.364;2023-08-08T02:46:02;6.40;;;4.37;;
5690;SDS011;2870;42.680;23.364;2023-08-08T02:48:29;6.83;;;4.43;;
5690;SDS011;2870;42.680;23.364;2023-08-08T02:50:56;6.20;;;4.60;;
5690;SDS011;2870;42.680;23.364;2023-08-08T02:53:22;5.53;;;3.80;;
5690;SDS011;2870;42.680;23.364;2023-08-08T02:55:48;9.70;;;4.70;;
5690;SDS011;2870;42.680;23.364;2023-08-08T02:58:14;6.67;;;4.60;;
5690;SDS011;2870;42.680;23.364;2023-08-08T03:00:41;6.37;;;4.80;;
5690;SDS011;2870;42.680;23.364;2023-08-08T03:03:07;5.57;;;4.03;;
5690;SDS011;2870;42.680;23.364;2023-08-08T03:05:33;6.27;;;4.50;;
5690;SDS011;2870;42.680;23.364;2023-08-08T03:08:00;5.90;;;4.13;;
5690;SDS011;2870;42.680;23.364;2023-08-08T03:10:26;8.27;;;4.50;;
5690;SDS011;2870;42.680;23.364;2023-08-08T03:12:52;7.30;;;4.07;;
5690;SDS011;2870;42.680;23.364;2023-08-08T03:15:19;6.30;;;4.80;;
5690;SDS011;2870;42.680;23.364;2023-08-08T03:17:45;7.53;;;4.43;;
5690;SDS011;2870;42.680;23.364;2023-08-08T03:20:11;7.20;;;4.00;;
5690;SDS011;2870;42.680;23.364;2023-08-08T03:22:37;6.60;;;4.53;;
5690;SDS011;2870;42.680;23.364;2023-08-08T03:25:04;6.07;;;4.30;;
5690;SDS011;2870;42.680;23.364;2023-08-08T03:27:31;8.90;;;5.10;;
5690;SDS011;2870;42.680;23.364;2023-08-08T03:29:57;6.93;;;5.07;;
5690;SDS011;2870;42.680;23.364;2023-08-08T03:32:23;6.70;;;4.27;;
5690;SDS011;2870;42.680;23.364;2023-08-08T03:34:49;6.40;;;4.73;;
5690;SDS011;2870;42.680;23.364;2023-08-08T03:37:15;10.80;;;5.43;;
5690;SDS011;2870;42.680;23.364;2023-08-08T03:39:41;6.90;;;4.80;;
5690;SDS011;2870;42.680;23.364;2023-08-08T03:42:08;8.87;;;4.63;;
5690;SDS011;2870;42.680;23.364;2023-08-08T03:44:34;7.57;;;6.20;;
5690;SDS011;2870;42.680;23.364;2023-08-08T03:47:01;8.43;;;5.37;;
5690;SDS011;2870;42.680;23.364;2023-08-08T03:49:27;7.33;;;5.90;;
5690;SDS011;2870;42.680;23.364;2023-08-08T03:51:53;6.90;;;5.33;;
5690;SDS011;2870;42.680;23.364;2023-08-08T03:54:19;9.93;;;5.07;;
5690;SDS011;2870;42.680;23.364;2023-08-08T03:56:45;8.77;;;5.93;;
5690;SDS011;2870;42.680;23.364;2023-08-08T03:59:12;7.47;;;4.77;;
5690;SDS011;2870;42.680;23.364;2023-08-08T04:01:38;7.27;;;5.60;;
5690;SDS011;2870;42.680;23.364;2023-08-08T04:04:04;7.20;;;5.30;;
5690;SDS011;2870;42.680;23.364;2023-08-08T04:06:30;9.63;;;5.67;;
5690;SDS011;2870;42.680;23.364;2023-08-08T04:08:56;7.67;;;5.77;;
5690;SDS011;2870;42.680;23.364;2023-08-08T04:11:23;7.70;;;6.20;;
5690;SDS011;2870;42.680;23.364;2023-08-08T04:13:49;8.40;;;6.50;;
5690;SDS011;2870;42.680;23.364;2023-08-08T04:16:15;8.30;;;6.77;;
5690;SDS011;2870;42.680;23.364;2023-08-08T04:18:42;7.80;;;6.23;;
5690;SDS011;2870;42.680;23.364;2023-08-08T04:21:08;8.77;;;6.70;;
5690;SDS011;2870;42.680;23.364;2023-08-08T04:23:34;9.77;;;6.53;;
5690;SDS011;2870;42.680;23.364;2023-08-08T04:26:00;9.80;;;6.43;;
5690;SDS011;2870;42.680;23.364;2023-08-08T04:28:27;8.40;;;6.50;;
5690;SDS011;2870;42.680;23.364;2023-08-08T04:30:53;10.87;;;7.33;;
5690;SDS011;2870;42.680;23.364;2023-08-08T04:33:20;9.90;;;7.27;;
5690;SDS011;2870;42.680;23.364;2023-08-08T04:35:46;9.33;;;7.17;;
5690;SDS011;2870;42.680;23.364;2023-08-08T04:38:13;10.53;;;7.03;;
5690;SDS011;2870;42.680;23.364;2023-08-08T04:40:39;9.73;;;6.83;;
5690;SDS011;2870;42.680;23.364;2023-08-08T04:43:05;9.43;;;6.60;;
5690;SDS011;2870;42.680;23.364;2023-08-08T04:45:31;8.40;;;6.87;;
5690;SDS011;2870;42.680;23.364;2023-08-08T04:47:58;20.90;;;7.97;;
5690;SDS011;2870;42.680;23.364;2023-08-08T04:50:25;13.53;;;7.10;;
5690;SDS011;2870;42.680;23.364;2023-08-08T04:52:51;12.40;;;7.00;;
5690;SDS011;2870;42.680;23.364;2023-08-08T04:55:18;11.87;;;6.87;;
5690;SDS011;2870;42.680;23.364;2023-08-08T04:57:44;9.87;;;6.60;;
5690;SDS011;2870;42.680;23.364;2023-08-08T05:00:10;7.90;;;5.80;;
5690;SDS011;2870;42.680;23.364;2023-08-08T05:02:38;9.93;;;6.87;;
5690;SDS011;2870;42.680;23.364;2023-08-08T05:05:06;11.70;;;6.93;;
5690;SDS011;2870;42.680;23.364;2023-08-08T05:07:33;10.10;;;7.60;;
5690;SDS011;2870;42.680;23.364;2023-08-08T05:10:02;9.93;;;7.03;;
5690;SDS011;2870;42.680;23.364;2023-08-08T05:12:29;9.00;;;6.73;;
5690;SDS011;2870;42.680;23.364;2023-08-08T05:14:55;9.70;;;6.67;;
5690;SDS011;2870;42.680;23.364;2023-08-08T05:17:22;9.90;;;6.90;;
5690;SDS011;2870;42.680;23.364;2023-08-08T05:19:48;9.23;;;7.30;;
5690;SDS011;2870;42.680;23.364;2023-08-08T05:22:14;10.43;;;7.17;;
5690;SDS011;2870;42.680;23.364;2023-08-08T05:24:41;15.37;;;6.33;;
5690;SDS011;2870;42.680;23.364;2023-08-08T05:27:07;15.13;;;6.47;;
5690;SDS011;2870;42.680;23.364;2023-08-08T05:29:34;10.27;;;6.67;;
5690;SDS011;2870;42.680;23.364;2023-08-08T05:32:03;7.67;;;6.43;;
5690;SDS011;2870;42.680;23.364;2023-08-08T05:34:31;9.63;;;7.00;;
5690;SDS011;2870;42.680;23.364;2023-08-08T05:36:57;8.47;;;6.30;;
5690;SDS011;2870;42.680;23.364;2023-08-08T05:39:24;13.10;;;6.27;;
5690;SDS011;2870;42.680;23.364;2023-08-08T05:41:51;8.33;;;5.90;;
5690;SDS011;2870;42.680;23.364;2023-08-08T05:44:17;7.70;;;5.93;;
5690;SDS011;2870;42.680;23.364;2023-08-08T05:46:44;10.43;;;5.60;;
5690;SDS011;2870;42.680;23.364;2023-08-08T05:49:10;14.37;;;6.80;;
5690;SDS011;2870;42.680;23.364;2023-08-08T05:51:36;12.00;;;6.40;;
5690;SDS011;2870;42.680;23.364;2023-08-08T05:54:02;31.63;;;9.30;;
5690;SDS011;2870;42.680;23.364;2023-08-08T05:56:34;142.07;;;25.33;;
5690;SDS011;2870;42.680;23.364;2023-08-08T05:59:02;45.70;;;12.03;;
5690;SDS011;2870;42.680;23.364;2023-08-08T06:01:29;18.03;;;5.30;;
5690;SDS011;2870;42.680;23.364;2023-08-08T06:03:56;7.63;;;5.30;;
5690;SDS011;2870;42.680;23.364;2023-08-08T06:06:23;7.47;;;5.40;;
5690;SDS011;2870;42.680;23.364;2023-08-08T06:08:49;9.30;;;5.70;;
5690;SDS011;2870;42.680;23.364;2023-08-08T06:11:15;8.20;;;5.87;;
5690;SDS011;2870;42.680;23.364;2023-08-08T06:13:42;9.10;;;5.90;;
5690;SDS011;2870;42.680;23.364;2023-08-08T06:16:08;7.50;;;5.90;;
5690;SDS011;2870;42.680;23.364;2023-08-08T06:18:35;10.20;;;7.30;;
5690;SDS011;2870;42.680;23.364;2023-08-08T06:21:01;9.60;;;6.03;;
5690;SDS011;2870;42.680;23.364;2023-08-08T06:23:27;8.10;;;6.40;;
5690;SDS011;2870;42.680;23.364;2023-08-08T06:25:54;8.13;;;6.70;;
5690;SDS011;2870;42.680;23.364;2023-08-08T06:28:20;9.40;;;6.90;;
5690;SDS011;2870;42.680;23.364;2023-08-08T06:30:46;9.87;;;6.17;;
5690;SDS011;2870;42.680;23.364;2023-08-08T06:33:12;8.60;;;5.77;;
5690;SDS011;2870;42.680;23.364;2023-08-08T06:35:39;7.90;;;5.90;;
5690;SDS011;2870;42.680;23.364;2023-08-08T06:38:05;8.63;;;6.13;;
5690;SDS011;2870;42.680;23.364;2023-08-08T06:40:31;18.00;;;6.60;;
5690;SDS011;2870;42.680;23.364;2023-08-08T06:42:57;8.80;;;6.47;;
5690;SDS011;2870;42.680;23.364;2023-08-08T06:45:23;7.40;;;5.57;;
5690;SDS011;2870;42.680;23.364;2023-08-08T06:47:49;10.00;;;6.10;;
5690;SDS011;2870;42.680;23.364;2023-08-08T06:50:16;8.30;;;6.50;;
5690;SDS011;2870;42.680;23.364;2023-08-08T06:52:43;11.97;;;6.53;;
5690;SDS011;2870;42.680;23.364;2023-08-08T06:55:09;8.07;;;6.23;;
5690;SDS011;2870;42.680;23.364;2023-08-08T06:57:36;11.00;;;5.60;;
5690;SDS011;2870;42.680;23.364;2023-08-08T07:00:02;10.30;;;6.40;;
5690;SDS011;2870;42.680;23.364;2023-08-08T07:02:30;8.73;;;5.10;;
5690;SDS011;2870;42.680;23.364;2023-08-08T07:04:56;8.10;;;5.30;;
5690;SDS011;2870;42.680;23.364;2023-08-08T07:07:23;7.90;;;5.27;;
5690;SDS011;2870;42.680;23.364;2023-08-08T07:09:49;15.03;;;4.90;;
5690;SDS011;2870;42.680;23.364;2023-08-08T07:12:16;8.37;;;4.87;;
5690;SDS011;2870;42.680;23.364;2023-08-08T07:14:42;7.20;;;4.60;;
5690;SDS011;2870;42.680;23.364;2023-08-08T07:17:08;6.13;;;4.20;;
5690;SDS011;2870;42.680;23.364;2023-08-08T07:19:35;8.73;;;5.27;;
5690;SDS011;2870;42.680;23.364;2023-08-08T07:22:01;7.67;;;4.97;;
5690;SDS011;2870;42.680;23.364;2023-08-08T07:24:28;6.60;;;4.33;;
5690;SDS011;2870;42.680;23.364;2023-08-08T07:26:55;11.43;;;5.80;;
5690;SDS011;2870;42.680;23.364;2023-08-08T07:29:21;9.50;;;5.90;;
5690;SDS011;2870;42.680;23.364;2023-08-08T07:31:47;7.37;;;5.50;;
5690;SDS011;2870;42.680;23.364;2023-08-08T07:34:13;6.23;;;4.60;;
5690;SDS011;2870;42.680;23.364;2023-08-08T07:36:39;7.77;;;5.47;;
5690;SDS011;2870;42.680;23.364;2023-08-08T07:39:05;10.20;;;6.60;;
5690;SDS011;2870;42.680;23.364;2023-08-08T07:41:32;13.27;;;5.90;;
5690;SDS011;2870;42.680;23.364;2023-08-08T07:43:58;13.20;;;5.53;;
5690;SDS011;2870;42.680;23.364;2023-08-08T07:46:24;9.70;;;4.00;;
5690;SDS011;2870;42.680;23.364;2023-08-08T07:48:50;7.33;;;4.40;;
5690;SDS011;2870;42.680;23.364;2023-08-08T07:51:16;10.13;;;4.50;;
5690;SDS011;2870;42.680;23.364;2023-08-08T07:53:42;6.43;;;4.60;;
5690;SDS011;2870;42.680;23.364;2023-08-08T07:56:08;5.80;;;3.30;;
5690;SDS011;2870;42.680;23.364;2023-08-08T07:58:35;9.60;;;3.70;;
5690;SDS011;2870;42.680;23.364;2023-08-08T08:01:01;7.60;;;4.33;;
5690;SDS011;2870;42.680;23.364;2023-08-08T08:03:28;9.50;;;5.77;;
5690;SDS011;2870;42.680;23.364;2023-08-08T08:05:54;8.30;;;5.50;;
5690;SDS011;2870;42.680;23.364;2023-08-08T08:08:20;5.50;;;3.93;;
5690;SDS011;2870;42.680;23.364;2023-08-08T08:10:46;6.57;;;3.40;;
5690;SDS011;2870;42.680;23.364;2023-08-08T08:13:13;6.23;;;3.67;;
5690;SDS011;2870;42.680;23.364;2023-08-08T08:15:40;9.23;;;4.47;;
5690;SDS011;2870;42.680;23.364;2023-08-08T08:18:06;7.20;;;4.27;;
5690;SDS011;2870;42.680;23.364;2023-08-08T08:20:33;9.33;;;4.03;;
5690;SDS011;2870;42.680;23.364;2023-08-08T08:22:59;5.97;;;3.00;;
5690;SDS011;2870;42.680;23.364;2023-08-08T08:25:25;6.90;;;3.73;;
5690;SDS011;2870;42.680;23.364;2023-08-08T08:27:51;7.40;;;3.80;;
5690;SDS011;2870;42.680;23.364;2023-08-08T08:30:17;6.37;;;2.97;;
5690;SDS011;2870;42.680;23.364;2023-08-08T08:32:45;5.77;;;2.90;;
5690;SDS011;2870;42.680;23.364;2023-08-08T08:35:11;6.80;;;3.20;;
5690;SDS011;2870;42.680;23.364;2023-08-08T08:37:38;8.97;;;3.97;;
5690;SDS011;2870;42.680;23.364;2023-08-08T08:40:04;7.97;;;4.60;;
5690;SDS011;2870;42.680;23.364;2023-08-08T08:42:31;6.30;;;3.77;;
5690;SDS011;2870;42.680;23.364;2023-08-08T08:44:59;7.57;;;3.77;;
5690;SDS011;2870;42.680;23.364;2023-08-08T08:47:28;6.40;;;3.50;;
5690;SDS011;2870;42.680;23.364;2023-08-08T08:49:56;6.90;;;3.80;;
5690;SDS011;2870;42.680;23.364;2023-08-08T08:52:23;7.60;;;4.23;;
5690;SDS011;2870;42.680;23.364;2023-08-08T08:54:49;7.30;;;4.47;;
5690;SDS011;2870;42.680;23.364;2023-08-08T08:57:16;6.60;;;4.00;;
5690;SDS011;2870;42.680;23.364;2023-08-08T08:59:42;9.20;;;4.37;;
5690;SDS011;2870;42.680;23.364;2023-08-08T09:02:09;6.20;;;3.80;;
5690;SDS011;2870;42.680;23.364;2023-08-08T09:04:36;8.33;;;3.50;;
5690;SDS011;2870;42.680;23.364;2023-08-08T09:07:03;6.60;;;4.30;;
5690;SDS011;2870;42.680;23.364;2023-08-08T09:09:31;8.03;;;4.13;;
5690;SDS011;2870;42.680;23.364;2023-08-08T09:11:58;6.00;;;3.67;;
5690;SDS011;2870;42.680;23.364;2023-08-08T09:14:25;7.20;;;4.03;;
5690;SDS011;2870;42.680;23.364;2023-08-08T09:16:52;6.90;;;4.00;;
5690;SDS011;2870;42.680;23.364;2023-08-08T09:19:20;9.10;;;4.10;;
5690;SDS011;2870;42.680;23.364;2023-08-08T09:21:47;6.73;;;3.40;;
5690;SDS011;2870;42.680;23.364;2023-08-08T09:24:14;7.40;;;3.73;;
5690;SDS011;2870;42.680;23.364;2023-08-08T09:26:41;7.07;;;3.90;;
5690;SDS011;2870;42.680;23.364;2023-08-08T09:29:08;9.23;;;3.93;;
5690;SDS011;2870;42.680;23.364;2023-08-08T09:31:36;5.53;;;3.60;;
5690;SDS011;2870;42.680;23.364;2023-08-08T09:34:03;17.23;;;4.40;;
5690;SDS011;2870;42.680;23.364;2023-08-08T09:36:30;7.70;;;4.13;;
5690;SDS011;2870;42.680;23.364;2023-08-08T09:38:56;6.70;;;3.87;;
5690;SDS011;2870;42.680;23.364;2023-08-08T09:41:23;6.30;;;3.57;;
5690;SDS011;2870;42.680;23.364;2023-08-08T09:43:50;6.03;;;4.07;;
5690;SDS011;2870;42.680;23.364;2023-08-08T09:46:18;6.77;;;4.13;;
5690;SDS011;2870;42.680;23.364;2023-08-08T09:48:44;5.73;;;3.43;;
5690;SDS011;2870;42.680;23.364;2023-08-08T09:51:12;7.20;;;3.80;;
5690;SDS011;2870;42.680;23.364;2023-08-08T09:53:38;9.40;;;4.17;;
5690;SDS011;2870;42.680;23.364;2023-08-08T09:56:05;6.30;;;4.10;;
5690;SDS011;2870;42.680;23.364;2023-08-08T09:58:33;11.73;;;4.30;;
5690;SDS011;2870;42.680;23.364;2023-08-08T10:00:59;9.50;;;3.80;;
5690;SDS011;2870;42.680;23.364;2023-08-08T10:03:26;6.20;;;3.83;;
5690;SDS011;2870;42.680;23.364;2023-08-08T10:05:53;12.70;;;3.87;;
5690;SDS011;2870;42.680;23.364;2023-08-08T10:08:19;7.13;;;3.73;;
5690;SDS011;2870;42.680;23.364;2023-08-08T10:10:46;7.70;;;4.13;;
5690;SDS011;2870;42.680;23.364;2023-08-08T10:13:18;5.30;;;3.60;;
5690;SDS011;2870;42.680;23.364;2023-08-08T10:15:46;5.70;;;3.87;;
5690;SDS011;2870;42.680;23.364;2023-08-08T10:18:12;10.93;;;5.10;;
5690;SDS011;2870;42.680;23.364;2023-08-08T10:20:41;7.20;;;4.77;;
5690;SDS011;2870;42.680;23.364;2023-08-08T10:23:08;6.20;;;4.30;;
5690;SDS011;2870;42.680;23.364;2023-08-08T10:25:34;5.70;;;4.00;;
5690;SDS011;2870;42.680;23.364;2023-08-08T10:28:02;7.00;;;3.77;;
5690;SDS011;2870;42.680;23.364;2023-08-08T10:30:30;7.40;;;3.83;;
5690;SDS011;2870;42.680;23.364;2023-08-08T10:33:14;7.30;;;3.97;;
5690;SDS011;2870;42.680;23.364;2023-08-08T10:35:49;6.30;;;4.00;;
5690;SDS011;2870;42.680;23.364;2023-08-08T10:38:19;5.57;;;3.87;;
5690;SDS011;2870;42.680;23.364;2023-08-08T10:40:47;6.10;;;3.87;;
5690;SDS011;2870;42.680;23.364;2023-08-08T10:43:13;5.87;;;2.73;;
5690;SDS011;2870;42.680;23.364;2023-08-08T10:45:40;6.30;;;3.50;;
5690;SDS011;2870;42.680;23.364;2023-08-08T10:48:09;6.47;;;3.63;;
5690;SDS011;2870;42.680;23.364;2023-08-08T10:50:38;5.40;;;3.70;;
5690;SDS011;2870;42.680;23.364;2023-08-08T10:53:07;5.00;;;3.00;;
5690;SDS011;2870;42.680;23.364;2023-08-08T10:55:34;5.50;;;3.17;;
5690;SDS011;2870;42.680;23.364;2023-08-08T10:58:04;6.93;;;4.17;;
5690;SDS011;2870;42.680;23.364;2023-08-08T11:00:32;6.93;;;3.40;;
5690;SDS011;2870;42.680;23.364;2023-08-08T11:03:00;5.47;;;3.40;;
5690;SDS011;2870;42.680;23.364;2023-08-08T11:05:28;5.33;;;3.50;;
5690;SDS011;2870;42.680;23.364;2023-08-08T11:07:56;5.80;;;3.50;;
5690;SDS011;2870;42.680;23.364;2023-08-08T11:10:22;8.73;;;3.73;;
5690;SDS011;2870;42.680;23.364;2023-08-08T11:12:52;5.93;;;3.50;;
5690;SDS011;2870;42.680;23.364;2023-08-08T11:15:20;7.90;;;3.73;;
5690;SDS011;2870;42.680;23.364;2023-08-08T11:17:46;5.80;;;3.10;;
5690;SDS011;2870;42.680;23.364;2023-08-08T11:20:13;5.00;;;3.33;;
5690;SDS011;2870;42.680;23.364;2023-08-08T11:22:40;9.30;;;3.70;;
5690;SDS011;2870;42.680;23.364;2023-08-08T11:25:07;6.00;;;3.13;;
5690;SDS011;2870;42.680;23.364;2023-08-08T11:27:34;6.53;;;4.00;;
5690;SDS011;2870;42.680;23.364;2023-08-08T11:30:00;6.10;;;3.80;;
5690;SDS011;2870;42.680;23.364;2023-08-08T11:32:27;5.20;;;3.27;;
5690;SDS011;2870;42.680;23.364;2023-08-08T11:34:54;5.33;;;3.27;;
5690;SDS011;2870;42.680;23.364;2023-08-08T11:37:20;6.37;;;3.57;;
5690;SDS011;2870;42.680;23.364;2023-08-08T11:39:47;5.37;;;3.20;;
5690;SDS011;2870;42.680;23.364;2023-08-08T11:42:14;5.83;;;3.80;;
5690;SDS011;2870;42.680;23.364;2023-08-08T11:44:40;4.97;;;3.23;;
5690;SDS011;2870;42.680;23.364;2023-08-08T11:47:07;7.40;;;3.80;;
5690;SDS011;2870;42.680;23.364;2023-08-08T11:49:39;6.70;;;3.80;;
5690;SDS011;2870;42.680;23.364;2023-08-08T11:52:06;5.60;;;3.47;;
5690;SDS011;2870;42.680;23.364;2023-08-08T11:54:32;5.87;;;3.80;;
5690;SDS011;2870;42.680;23.364;2023-08-08T11:57:00;6.13;;;3.30;;
5690;SDS011;2870;42.680;23.364;2023-08-08T11:59:27;6.00;;;3.23;;
5690;SDS011;2870;42.680;23.364;2023-08-08T12:01:53;6.67;;;3.77;;
5690;SDS011;2870;42.680;23.364;2023-08-08T12:04:21;10.83;;;3.80;;
5690;SDS011;2870;42.680;23.364;2023-08-08T12:06:48;6.50;;;3.43;;
5690;SDS011;2870;42.680;23.364;2023-08-08T12:09:14;6.47;;;3.63;;
5690;SDS011;2870;42.680;23.364;2023-08-08T12:11:40;8.33;;;3.27;;
5690;SDS011;2870;42.680;23.364;2023-08-08T12:14:08;4.90;;;2.93;;
5690;SDS011;2870;42.680;23.364;2023-08-08T12:16:36;5.53;;;3.47;;
5690;SDS011;2870;42.680;23.364;2023-08-08T12:19:06;11.30;;;3.30;;
5690;SDS011;2870;42.680;23.364;2023-08-08T12:21:34;6.80;;;3.30;;
5690;SDS011;2870;42.680;23.364;2023-08-08T12:24:00;7.80;;;3.33;;
5690;SDS011;2870;42.680;23.364;2023-08-08T12:26:27;6.93;;;3.30;;
5690;SDS011;2870;42.680;23.364;2023-08-08T12:28:53;5.70;;;3.70;;
5690;SDS011;2870;42.680;23.364;2023-08-08T12:31:20;5.03;;;2.97;;
5690;SDS011;2870;42.680;23.364;2023-08-08T12:33:46;7.73;;;3.47;;
5690;SDS011;2870;42.680;23.364;2023-08-08T12:36:13;5.53;;;3.30;;
5690;SDS011;2870;42.680;23.364;2023-08-08T12:38:40;6.53;;;3.63;;
5690;SDS011;2870;42.680;23.364;2023-08-08T12:41:06;5.30;;;3.30;;
5690;SDS011;2870;42.680;23.364;2023-08-08T12:43:32;6.37;;;3.57;;
5690;SDS011;2870;42.680;23.364;2023-08-08T12:45:59;5.33;;;3.27;;
5690;SDS011;2870;42.680;23.364;2023-08-08T12:48:26;5.33;;;3.37;;
5690;SDS011;2870;42.680;23.364;2023-08-08T12:50:52;5.43;;;3.20;;
5690;SDS011;2870;42.680;23.364;2023-08-08T12:53:18;6.60;;;3.20;;
5690;SDS011;2870;42.680;23.364;2023-08-08T12:55:44;6.30;;;3.20;;
5690;SDS011;2870;42.680;23.364;2023-08-08T12:58:10;5.17;;;3.03;;
5690;SDS011;2870;42.680;23.364;2023-08-08T13:00:36;4.83;;;2.90;;
5690;SDS011;2870;42.680;23.364;2023-08-08T13:03:03;6.97;;;3.37;;
5690;SDS011;2870;42.680;23.364;2023-08-08T13:05:30;6.70;;;3.40;;
5690;SDS011;2870;42.680;23.364;2023-08-08T13:07:56;5.80;;;3.57;;
5690;SDS011;2870;42.680;23.364;2023-08-08T13:10:22;7.47;;;3.17;;
5690;SDS011;2870;42.680;23.364;2023-08-08T13:12:48;5.00;;;3.07;;
5690;SDS011;2870;42.680;23.364;2023-08-08T13:15:14;5.50;;;2.83;;
5690;SDS011;2870;42.680;23.364;2023-08-08T13:17:41;6.60;;;3.20;;
5690;SDS011;2870;42.680;23.364;2023-08-08T13:20:07;5.33;;;3.13;;
5690;SDS011;2870;42.680;23.364;2023-08-08T13:22:35;4.90;;;2.93;;
5690;SDS011;2870;42.680;23.364;2023-08-08T13:25:01;6.63;;;3.53;;
5690;SDS011;2870;42.680;23.364;2023-08-08T13:27:27;4.60;;;2.70;;
5690;SDS011;2870;42.680;23.364;2023-08-08T13:29:53;5.63;;;3.23;;
5690;SDS011;2870;42.680;23.364;2023-08-08T13:32:19;6.60;;;3.40;;
5690;SDS011;2870;42.680;23.364;2023-08-08T13:34:45;5.33;;;2.90;;
5690;SDS011;2870;42.680;23.364;2023-08-08T13:37:11;6.10;;;3.13;;
5690;SDS011;2870;42.680;23.364;2023-08-08T13:39:39;5.73;;;3.50;;
5690;SDS011;2870;42.680;23.364;2023-08-08T13:42:05;5.57;;;3.20;;
5690;SDS011;2870;42.680;23.364;2023-08-08T13:44:31;8.53;;;3.70;;
5690;SDS011;2870;42.680;23.364;2023-08-08T13:46:57;6.10;;;3.73;;
5690;SDS011;2870;42.680;23.364;2023-08-08T13:49:24;5.10;;;3.03;;
5690;SDS011;2870;42.680;23.364;2023-08-08T13:51:51;4.63;;;2.83;;
5690;SDS011;2870;42.680;23.364;2023-08-08T13:54:17;5.10;;;3.10;;
5690;SDS011;2870;42.680;23.364;2023-08-08T13:56:44;8.10;;;3.20;;
5690;SDS011;2870;42.680;23.364;2023-08-08T13:59:10;5.27;;;3.30;;
5690;SDS011;2870;42.680;23.364;2023-08-08T14:01:36;6.80;;;3.20;;
5690;SDS011;2870;42.680;23.364;2023-08-08T14:04:03;5.10;;;3.13;;
5690;SDS011;2870;42.680;23.364;2023-08-08T14:06:29;6.33;;;3.50;;
5690;SDS011;2870;42.680;23.364;2023-08-08T14:08:56;6.20;;;3.60;;
5690;SDS011;2870;42.680;23.364;2023-08-08T14:11:22;5.97;;;3.10;;
5690;SDS011;2870;42.680;23.364;2023-08-08T14:13:49;7.27;;;3.17;;
5690;SDS011;2870;42.680;23.364;2023-08-08T14:16:15;4.90;;;3.00;;
5690;SDS011;2870;42.680;23.364;2023-08-08T14:18:42;6.03;;;3.33;;
5690;SDS011;2870;42.680;23.364;2023-08-08T14:21:08;6.47;;;3.00;;
5690;SDS011;2870;42.680;23.364;2023-08-08T14:23:34;5.30;;;3.17;;
5690;SDS011;2870;42.680;23.364;2023-08-08T14:26:00;10.40;;;3.43;;
5690;SDS011;2870;42.680;23.364;2023-08-08T14:28:26;8.37;;;2.90;;
5690;SDS011;2870;42.680;23.364;2023-08-08T14:30:53;7.23;;;3.50;;
5690;SDS011;2870;42.680;23.364;2023-08-08T14:33:19;9.13;;;3.63;;
5690;SDS011;2870;42.680;23.364;2023-08-08T14:35:45;5.60;;;3.00;;
5690;SDS011;2870;42.680;23.364;2023-08-08T14:38:11;5.50;;;3.30;;
5690;SDS011;2870;42.680;23.364;2023-08-08T14:40:38;6.80;;;3.10;;
5690;SDS011;2870;42.680;23.364;2023-08-08T14:43:04;4.90;;;3.00;;
5690;SDS011;2870;42.680;23.364;2023-08-08T14:45:35;6.67;;;3.63;;
5690;SDS011;2870;42.680;23.364;2023-08-08T14:48:03;14.20;;;3.47;;
5690;SDS011;2870;42.680;23.364;2023-08-08T14:50:30;5.00;;;3.13;;
5690;SDS011;2870;42.680;23.364;2023-08-08T14:52:56;5.53;;;3.27;;
5690;SDS011;2870;42.680;23.364;2023-08-08T14:55:22;5.73;;;3.40;;
5690;SDS011;2870;42.680;23.364;2023-08-08T14:57:48;7.20;;;3.23;;
5690;SDS011;2870;42.680;23.364;2023-08-08T15:00:14;5.77;;;3.23;;